Colorado Springs, Colorado
Current Conditions -  °F | °C
As of 9:54 PM on Monday 20 Oct 2014 (Local Time) from KCOS Reporting Station
Clear Clear  
Wind Chill: 53°   Ceiling: Unl
Heat Index: 53°   Visibility: 10mi
Dew Point: 38°   Wind: 6mph
Humidity: 57%   Direction: 140°SE
Pressure: 30.21"   Gusts: NA
Location:  38.83°N, 104.82°W
Report Text: KCOS 210354Z 14005KT 10SM CLR 12/03 A3021 RMK AO2 SLP179 T01170033
Loading
Personal Weather Stations






























Interactive Weather Map New forecast layout! Learn more

10-Day Weather Forecast

Advertisements
Track Severe Weather on mobile